Time;durP1;ratioP1;P1;durP2;ratioP2;P2;SDS_P1;SDS_P2;PMS_P1;PMS_P2;Temp;Humidity;BMP_temperature;BMP_pressure;BME280_temperature;BME280_humidity;BME280_pressure;Samples;Min_cycle;Max_cycle;Signal;HPM_P1;HPM_P2
2024/04/04 00:01:12;;;;;;;5.07;1.65;;;;;;;14.36;58.90;98770.06;4301615;33;32858;-90
2024/04/04 00:03:39;;;;;;;7.07;1.50;;;;;;;14.43;58.73;98763.91;4312831;33;33996;-91
2024/04/04 00:06:05;;;;;;;4.82;1.10;;;;;;;14.41;58.86;98770.03;4318786;33;32119;-90
2024/04/04 00:08:33;;;;;;;4.53;1.60;;;;;;;14.40;58.92;98763.09;4308518;33;33804;-89
2024/04/04 00:11:10;;;;;;;4.72;1.50;;;;;;;14.24;59.55;98764.94;4311862;33;33080;-91
2024/04/04 00:13:37;;;;;;;5.00;1.27;;;;;;;14.32;59.61;98765.78;4301415;33;34129;-90
2024/04/04 00:16:04;;;;;;;5.15;1.08;;;;;;;14.35;59.36;98758.75;4327971;33;34216;-88
2024/04/04 00:18:31;;;;;;;6.57;1.50;;;;;;;14.42;59.03;98753.50;4312010;33;33909;-89
2024/04/04 00:20:58;;;;;;;5.22;1.85;;;;;;;14.47;58.70;98756.91;4328035;33;34036;-91
2024/04/04 00:23:25;;;;;;;5.75;1.52;;;;;;;14.32;59.46;98760.56;4302336;33;33928;-89
2024/04/04 00:25:51;;;;;;;5.18;1.40;;;;;;;14.35;59.16;98765.72;4310034;33;33251;-90
2024/04/04 00:28:18;;;;;;;5.12;1.50;;;;;;;14.28;59.51;98761.44;4310165;33;34225;-90
2024/04/04 00:30:44;;;;;;;4.03;1.25;;;;;;;14.33;59.45;98764.88;4326176;33;33450;-89
2024/04/04 00:33:11;;;;;;;4.93;1.65;;;;;;;14.39;59.05;98767.41;4327963;33;33838;-91
2024/04/04 00:35:38;;;;;;;5.97;1.80;;;;;;;14.32;59.13;98753.59;4318278;33;34157;-91
2024/04/04 00:38:05;;;;;;;5.30;1.52;;;;;;;14.38;58.80;98762.22;4312066;33;33917;-90
2024/04/04 00:40:35;;;;;;;6.03;2.47;;;;;;;14.35;58.63;98770.94;4314657;33;34947;-91
2024/04/04 00:43:02;;;;;;;7.62;1.83;;;;;;;14.32;58.64;98776.19;4308945;33;34021;-89
2024/04/04 00:45:29;;;;;;;5.50;1.62;;;;;;;14.18;58.88;98772.84;4303721;33;33095;-90
2024/04/04 00:47:57;;;;;;;5.40;1.40;;;;;;;14.28;58.44;98777.06;4314568;33;32522;-89
2024/04/04 00:50:23;;;;;;;5.97;1.77;;;;;;;14.38;57.87;98783.94;4331727;33;33652;-90
2024/04/04 00:52:51;;;;;;;4.80;1.40;;;;;;;14.11;58.78;98772.00;4324167;33;33902;-91
2024/04/04 00:55:17;;;;;;;6.00;1.58;;;;;;;14.29;58.21;98778.81;4311141;33;34143;-89
2024/04/04 00:57:44;;;;;;;5.32;1.50;;;;;;;14.17;59.37;98782.41;4312528;33;34683;-90
2024/04/04 01:00:13;;;;;;;4.82;1.58;;;;;;;14.18;59.32;98772.84;4300819;33;33740;-89
2024/04/04 01:02:39;;;;;;;5.72;1.60;;;;;;;14.26;58.96;98789.28;4288693;33;34063;-90
2024/04/04 01:05:06;;;;;;;7.32;1.42;;;;;;;14.31;58.85;98782.25;4314156;33;33242;-89
2024/04/04 01:07:36;;;;;;;6.12;1.42;;;;;;;14.33;58.96;98777.91;4330383;33;33946;-91
2024/04/04 01:10:04;;;;;;;5.75;1.70;;;;;;;14.26;59.57;98778.84;4311304;33;33744;-91
2024/04/04 01:12:31;;;;;;;7.22;1.65;;;;;;;14.22;59.11;98771.94;4302396;33;33294;-90
2024/04/04 01:14:58;;;;;;;6.25;1.48;;;;;;;14.18;58.93;98772.84;4302417;33;33196;-89
2024/04/04 01:17:24;;;;;;;6.97;1.67;;;;;;;14.06;59.02;98769.44;4314418;33;33583;-89
2024/04/04 01:19:53;;;;;;;3.87;1.30;;;;;;;14.12;58.76;98768.50;4328363;33;33960;-91
2024/04/04 01:22:20;;;;;;;4.80;1.33;;;;;;;14.15;58.56;98773.72;4327936;33;33988;-94
2024/04/04 01:24:47;;;;;;;4.70;1.30;;;;;;;14.20;58.72;98776.28;4314162;33;33509;-89
2024/04/04 01:27:13;;;;;;;6.93;1.50;;;;;;;13.87;59.94;98776.53;4324611;33;36389;-89
2024/04/04 01:29:40;;;;;;;4.30;1.30;;;;;;;14.01;58.86;98776.41;4303253;33;33974;-93
2024/04/04 01:32:07;;;;;;;5.05;1.60;;;;;;;14.07;58.49;98785.94;4325411;33;34483;-90
2024/04/04 01:34:33;;;;;;;5.32;1.48;;;;;;;14.21;58.13;98776.28;4321200;33;33632;-90
2024/04/04 01:37:00;;;;;;;4.87;1.12;;;;;;;13.97;59.26;98779.91;4330412;33;34714;-90
2024/04/04 01:39:26;;;;;;;3.83;1.08;;;;;;;13.82;59.88;98786.09;4310280;33;34922;-91
2024/04/04 01:41:54;;;;;;;5.85;1.33;;;;;;;13.75;59.86;98778.34;4313572;33;33468;-92
2024/04/04 01:44:22;;;;;;;5.37;1.30;;;;;;;13.74;59.29;98777.47;4299747;33;34046;-91
2024/04/04 01:46:49;;;;;;;3.85;1.10;;;;;;;13.89;58.20;98773.91;4320096;33;33778;-91
2024/04/04 01:49:16;;;;;;;4.03;1.15;;;;;;;13.71;58.41;98763.59;4313941;33;33607;-91
2024/04/04 01:51:43;;;;;;;3.97;1.30;;;;;;;13.68;58.29;98764.50;4331281;33;33671;-90
2024/04/04 01:54:10;;;;;;;5.20;1.42;;;;;;;13.59;58.29;98770.59;4308068;33;33696;-91
2024/04/04 01:56:37;;;;;;;4.55;1.30;;;;;;;13.26;59.55;98783.78;4288936;33;33886;-90
2024/04/04 01:59:04;;;;;;;4.30;1.30;;;;;;;13.17;59.73;98799.44;4303191;33;34261;-91
2024/04/04 02:01:31;;;;;;;4.22;1.50;;;;;;;13.38;58.69;98805.44;4301870;33;33183;-91
2024/04/04 02:03:57;;;;;;;4.75;1.58;;;;;;;13.28;58.60;98814.16;4315840;33;34394;-90
2024/04/04 02:06:24;;;;;;;4.90;1.80;;;;;;;13.26;58.31;98810.72;4316463;33;33115;-90
2024/04/04 02:08:50;;;;;;;4.50;1.50;;;;;;;13.12;58.47;98815.06;4316008;33;34218;-89
2024/04/04 02:11:17;;;;;;;4.47;1.50;;;;;;;13.25;58.36;98828.94;4322853;33;33881;-91
2024/04/04 02:13:44;;;;;;;5.75;1.83;;;;;;;13.18;58.44;98827.19;4330936;33;34221;-90
2024/04/04 02:16:10;;;;;;;5.35;1.55;;;;;;;13.30;58.00;98822.00;4328518;33;34019;-91
2024/04/04 02:18:37;;;;;;;3.53;1.40;;;;;;;13.26;57.93;98826.34;4316841;33;33839;-91
2024/04/04 02:21:04;;;;;;;4.85;1.58;;;;;;;13.18;58.25;98832.38;4310881;33;33891;-91
2024/04/04 02:23:31;;;;;;;4.25;1.40;;;;;;;12.97;59.09;98834.19;4294243;33;33649;-91
2024/04/04 02:25:58;;;;;;;5.47;1.73;;;;;;;13.12;58.74;98839.34;4320558;33;32953;-90
2024/04/04 02:28:24;;;;;;;4.82;1.20;;;;;;;13.11;58.84;98836.75;4326015;33;34342;-92
2024/04/04 02:30:51;;;;;;;5.62;1.60;;;;;;;13.02;59.25;98841.97;4330853;33;33778;-91
2024/04/04 02:33:18;;;;;;;6.43;2.10;;;;;;;12.97;59.36;98841.13;4325380;33;33584;-90
2024/04/04 02:35:54;;;;;;;5.25;1.70;;;;;;;13.07;59.13;98846.31;4314824;33;33856;-90
2024/04/04 02:38:23;;;;;;;6.28;1.65;;;;;;;13.01;59.41;98848.91;4290742;33;33930;-91
2024/04/04 02:40:49;;;;;;;5.10;1.50;;;;;;;12.90;59.41;98848.94;4301505;33;33637;-90
2024/04/04 02:43:17;;;;;;;5.80;1.40;;;;;;;12.74;60.12;98849.84;4302449;33;34140;-90
2024/04/04 02:45:44;;;;;;;5.18;1.87;;;;;;;12.90;59.99;98842.87;4303284;33;34421;-90
2024/04/04 02:48:12;;;;;;;5.62;1.73;;;;;;;12.87;60.29;98848.94;4327938;33;33672;-90
2024/04/04 02:50:38;;;;;;;5.35;1.65;;;;;;;12.97;60.05;98844.59;4317551;33;33591;-90
2024/04/04 02:53:05;;;;;;;4.87;1.67;;;;;;;12.87;60.50;98842.87;4329189;33;33101;-89
2024/04/04 02:55:33;;;;;;;5.20;1.95;;;;;;;12.91;60.49;98855.88;4306160;33;34678;-89
2024/04/04 02:58:00;;;;;;;7.18;1.75;;;;;;;13.25;58.56;98840.19;4328439;33;35853;-90
2024/04/04 03:00:26;;;;;;;5.45;1.45;;;;;;;12.84;60.17;98846.38;4316895;33;34752;-90
2024/04/04 03:02:53;;;;;;;4.37;1.67;;;;;;;12.82;61.36;98855.03;4330569;33;32922;-91
2024/04/04 03:05:20;;;;;;;3.67;1.45;;;;;;;12.88;61.06;98849.81;4330556;33;33821;-91
2024/04/04 03:07:49;;;;;;;3.80;1.45;;;;;;;12.65;61.61;98855.91;4330968;33;34080;-90
2024/04/04 03:10:16;;;;;;;6.12;1.85;;;;;;;12.53;61.26;98853.31;4306161;33;33847;-91
2024/04/04 03:12:42;;;;;;;6.22;1.67;;;;;;;12.54;61.75;98851.56;4327530;33;34307;-90
2024/04/04 03:15:09;;;;;;;4.85;1.50;;;;;;;12.83;60.45;98852.41;4325810;33;34036;-87
2024/04/04 03:17:36;;;;;;;6.40;2.10;;;;;;;12.49;61.67;98861.97;4319999;33;35046;-91
2024/04/04 03:20:03;;;;;;;6.60;1.70;;;;;;;12.72;60.36;98859.34;4315911;33;34782;-91
2024/04/04 03:22:30;;;;;;;5.35;2.00;;;;;;;12.76;60.60;98857.63;4302035;33;34231;-89
2024/04/04 03:24:56;;;;;;;5.03;1.70;;;;;;;12.76;59.99;98855.88;4306749;33;33583;-88
2024/04/04 03:27:23;;;;;;;6.87;2.12;;;;;;;12.73;61.70;98865.41;4314306;33;34948;-91
2024/04/04 03:29:50;;;;;;;6.35;2.08;;;;;;;12.83;61.07;98864.56;4322561;33;34089;-90
2024/04/04 03:32:17;;;;;;;5.05;1.87;;;;;;;12.86;60.54;98867.16;4317427;33;33094;-89
2024/04/04 03:34:47;;;;;;;6.30;1.77;;;;;;;12.90;59.60;98858.47;4317686;33;34939;-90
2024/04/04 03:37:13;;;;;;;5.40;1.90;;;;;;;12.94;59.71;98860.22;4317691;33;35106;-90
2024/04/04 03:39:41;;;;;;;8.70;1.87;;;;;;;12.85;58.91;98855.88;4325108;33;34301;-89
2024/04/04 03:42:07;;;;;;;4.68;1.87;;;;;;;12.87;59.01;98855.88;4316545;33;33124;-91
2024/04/04 03:44:34;;;;;;;6.22;1.67;;;;;;;13.07;59.90;98868.88;4313132;33;33073;-90
2024/04/04 03:47:00;;;;;;;5.65;2.00;;;;;;;13.22;59.57;98861.03;4326150;33;33986;-90
2024/04/04 03:49:27;;;;;;;5.65;1.75;;;;;;;13.23;59.18;98867.09;4332122;33;33677;-90
2024/04/04 03:51:54;;;;;;;6.45;2.17;;;;;;;13.28;59.21;98868.84;4312925;33;33596;-89
2024/04/04 03:54:20;;;;;;;4.43;1.52;;;;;;;13.39;59.28;98868.81;4327789;33;34665;-90
2024/04/04 03:56:47;;;;;;;5.85;1.75;;;;;;;13.30;58.82;98874.06;4325132;33;34797;-90
2024/04/04 03:59:13;;;;;;;5.97;1.85;;;;;;;13.32;59.12;98878.38;4313819;33;34589;-92
2024/04/04 04:01:40;;;;;;;5.37;2.10;;;;;;;13.27;60.11;98871.47;4311861;33;33542;-89
2024/04/04 04:04:08;;;;;;;6.22;1.83;;;;;;;13.18;59.18;98880.09;4319260;33;33924;-89
2024/04/04 04:06:36;;;;;;;8.07;2.87;;;;;;;13.12;58.23;98873.19;4326932;33;34185;-88
2024/04/04 04:09:02;;;;;;;7.75;2.10;;;;;;;12.91;59.25;98881.03;4330100;33;34791;-89
2024/04/04 04:11:29;;;;;;;6.43;1.90;;;;;;;12.83;59.04;98887.97;4318080;33;31910;-89
2024/04/04 04:13:56;;;;;;;6.60;1.65;;;;;;;13.18;58.77;98889.66;4331715;33;33790;-89
2024/04/04 04:16:22;;;;;;;6.25;1.90;;;;;;;13.11;58.70;98894.03;4323828;33;35125;-90
2024/04/04 04:18:50;;;;;;;6.12;1.85;;;;;;;13.18;59.00;98894.84;4314512;33;34078;-89
2024/04/04 04:21:24;;;;;;;5.80;2.12;;;;;;;12.98;58.34;98908.78;4302616;33;33349;-89
2024/04/04 04:23:53;;;;;;;6.00;2.20;;;;;;;13.29;57.95;98890.53;4318211;33;33576;-89
2024/04/04 04:26:20;;;;;;;8.05;1.90;;;;;;;13.27;58.12;98907.91;4331501;33;34235;-90
2024/04/04 04:28:47;;;;;;;4.57;2.00;;;;;;;13.05;58.57;98907.03;4306314;33;34831;-89
2024/04/04 04:31:33;;;;;;;6.25;2.00;;;;;;;13.04;58.53;98911.37;4329835;33;34600;-89
2024/04/04 04:34:02;;;;;;;6.43;2.00;;;;;;;13.31;58.29;98907.88;4316338;33;33903;-89
2024/04/04 04:36:35;;;;;;;6.03;2.05;;;;;;;13.36;58.40;98910.47;4303740;33;33596;-90
2024/04/04 04:39:02;;;;;;;5.72;2.20;;;;;;;13.24;58.89;98913.97;4299518;33;34131;-89
2024/04/04 04:41:29;;;;;;;5.12;1.85;;;;;;;13.19;58.62;98912.22;4302446;33;34281;-90
2024/04/04 04:43:55;;;;;;;5.62;2.15;;;;;;;13.19;59.52;98917.44;4289250;33;32826;-90
2024/04/04 04:46:22;;;;;;;5.97;2.17;;;;;;;13.14;59.74;98915.72;4302668;33;34300;-90
2024/04/04 04:48:49;;;;;;;8.02;2.03;;;;;;;13.27;59.38;98918.31;4302367;33;33776;-92
2024/04/04 04:51:15;;;;;;;7.75;2.30;;;;;;;13.31;58.40;98920.03;4301077;33;33683;-90
2024/04/04 04:53:42;;;;;;;6.05;2.00;;;;;;;13.50;57.73;98919.13;4315803;33;34721;-91
2024/04/04 04:56:08;;;;;;;6.55;2.12;;;;;;;13.25;58.00;98922.66;4303594;33;34934;-91
2024/04/04 04:58:35;;;;;;;7.18;1.87;;;;;;;12.95;58.73;98926.13;4316809;33;34229;-91
2024/04/04 05:01:03;;;;;;;4.57;1.95;;;;;;;13.24;58.24;98933.94;4317057;33;33573;-90
2024/04/04 05:03:31;;;;;;;5.37;2.20;;;;;;;13.32;58.04;98927.84;4303011;33;34756;-90
2024/04/04 05:05:57;;;;;;;3.75;1.77;;;;;;;13.00;58.86;98927.00;4303015;33;33938;-90
2024/04/04 05:08:24;;;;;;;4.75;1.73;;;;;;;13.27;57.70;98931.34;4303642;33;33804;-90
2024/04/04 05:10:51;;;;;;;6.20;1.90;;;;;;;13.17;58.51;98937.38;4313596;33;33408;-89
2024/04/04 05:13:17;;;;;;;4.25;2.08;;;;;;;13.22;58.96;98940.84;4306258;33;34061;-88
2024/04/04 05:15:53;;;;;;;5.30;2.15;;;;;;;13.30;58.38;98939.16;4314947;33;32648;-88
2024/04/04 05:18:23;;;;;;;6.93;2.00;;;;;;;13.30;58.44;98941.75;4311459;33;34601;-91
2024/04/04 05:21:06;;;;;;;6.07;2.37;;;;;;;13.05;58.72;98935.66;4302318;33;34742;-89
2024/04/04 05:23:33;;;;;;;5.62;2.15;;;;;;;13.08;59.17;98933.91;4306697;33;34545;-88
2024/04/04 05:26:00;;;;;;;4.78;1.98;;;;;;;13.11;59.46;98935.66;4313944;33;34233;-88
2024/04/04 05:28:29;;;;;;;5.37;2.30;;;;;;;13.07;59.09;98940.00;4294236;33;34068;-87
2024/04/04 05:30:56;;;;;;;5.05;2.10;;;;;;;13.13;59.00;98950.38;4301959;33;34212;-88
2024/04/04 05:33:24;;;;;;;8.35;2.30;;;;;;;13.37;58.18;98943.44;4302039;33;32862;-87
2024/04/04 05:35:53;;;;;;;5.47;2.15;;;;;;;13.20;58.85;98946.06;4316621;33;33270;-88
2024/04/04 05:38:20;;;;;;;5.55;2.15;;;;;;;13.34;58.36;98940.87;4291017;33;32691;-89
2024/04/04 05:40:47;;;;;;;6.45;2.30;;;;;;;13.04;59.55;98949.56;4316319;33;33595;-89
2024/04/04 05:43:14;;;;;;;6.35;1.85;;;;;;;12.82;60.35;98946.94;4316652;33;33529;-89
2024/04/04 05:45:41;;;;;;;5.85;2.58;;;;;;;12.82;60.47;98938.28;4311955;33;34273;-90
2024/04/04 05:48:07;;;;;;;5.35;2.12;;;;;;;13.10;59.56;98945.19;4305382;33;34575;-90
2024/04/04 05:50:36;;;;;;;3.65;1.62;;;;;;;13.16;59.66;98952.13;4314382;33;33671;-91
2024/04/04 05:53:03;;;;;;;6.25;1.95;;;;;;;12.89;60.80;98953.88;4321470;33;33920;-89
2024/04/04 05:55:30;;;;;;;4.85;2.20;;;;;;;12.98;60.15;98953.00;4316667;33;33991;-91
2024/04/04 05:57:56;;;;;;;4.03;1.73;;;;;;;13.05;60.88;98967.75;4331449;33;34669;-89
2024/04/04 06:00:23;;;;;;;4.10;1.60;;;;;;;13.02;60.22;98962.53;4330958;33;34303;-88
2024/04/04 06:02:50;;;;;;;4.25;1.73;;;;;;;12.96;60.98;98965.16;4314367;33;34926;-88
2024/04/04 06:05:16;;;;;;;4.10;1.73;;;;;;;13.50;59.27;98963.38;4310299;33;34012;-90
2024/04/04 06:07:42;;;;;;;4.93;1.60;;;;;;;13.34;59.67;98965.16;4315805;33;33897;-89
2024/04/04 06:10:09;;;;;;;5.55;1.92;;;;;;;13.56;59.37;98963.38;4317651;33;34228;-90
2024/04/04 06:12:36;;;;;;;3.42;1.60;;;;;;;13.37;60.36;98966.88;4317197;33;34736;-91
2024/04/04 06:15:02;;;;;;;3.95;1.30;;;;;;;13.43;60.57;98969.47;4303661;33;33867;-90
2024/04/04 06:17:29;;;;;;;6.20;1.50;;;;;;;13.57;59.22;98966.84;4301888;33;34727;-92
2024/04/04 06:19:56;;;;;;;2.67;1.20;;;;;;;13.35;60.52;98971.22;4301727;33;34483;-89
2024/04/04 06:22:22;;;;;;;2.67;1.23;;;;;;;13.67;59.38;98978.09;4312273;33;33740;-88
2024/04/04 06:24:49;;;;;;;4.00;1.50;;;;;;;13.70;60.16;98978.09;4307280;33;34660;-90
2024/04/04 06:27:15;;;;;;;4.80;1.85;;;;;;;13.69;60.42;98977.22;4293012;33;32964;-90
2024/04/04 06:29:42;;;;;;;5.97;1.90;;;;;;;13.99;59.43;98970.19;4315796;33;33333;-90
2024/04/04 06:32:08;;;;;;;3.65;1.55;;;;;;;13.98;58.79;98974.53;4312188;33;33714;-90
2024/04/04 06:34:35;;;;;;;4.43;1.85;;;;;;;13.96;58.31;98975.41;4301676;33;33895;-90
2024/04/04 06:37:02;;;;;;;3.72;1.67;;;;;;;13.79;59.31;98978.09;4301587;33;34603;-90
2024/04/04 06:39:29;;;;;;;4.22;2.03;;;;;;;14.18;58.06;98981.41;4312328;33;34426;-90
2024/04/04 06:41:55;;;;;;;4.35;1.40;;;;;;;14.17;58.55;98983.16;4312596;33;33149;-89
2024/04/04 06:44:22;;;;;;;3.58;1.30;;;;;;;14.18;58.38;98990.09;4301598;33;35096;-89
2024/04/04 06:46:48;;;;;;;3.75;1.55;;;;;;;13.97;59.16;98983.22;4304066;33;33881;-91
2024/04/04 06:49:15;;;;;;;3.12;1.27;;;;;;;14.14;59.04;98990.13;4315380;33;34570;-89
2024/04/04 06:51:41;;;;;;;3.60;1.40;;;;;;;14.09;58.95;98991.00;4315985;33;34663;-89
2024/04/04 06:54:09;;;;;;;2.30;1.30;;;;;;;14.14;58.90;99000.53;4315855;33;34024;-90
2024/04/04 06:56:35;;;;;;;3.47;1.40;;;;;;;13.80;60.05;99005.88;4315746;33;33635;-90
2024/04/04 06:59:02;;;;;;;4.43;1.23;;;;;;;13.79;60.47;99006.75;4302116;33;34151;-90
2024/04/04 07:01:29;;;;;;;4.82;1.58;;;;;;;13.88;59.94;99014.53;4315801;33;34146;-90
2024/04/04 07:03:56;;;;;;;4.65;1.30;;;;;;;13.69;60.74;99015.44;4314793;33;34240;-90
2024/04/04 07:06:24;;;;;;;4.93;1.52;;;;;;;13.98;59.94;99017.94;4302575;33;33968;-90
2024/04/04 07:08:51;;;;;;;2.60;1.15;;;;;;;13.52;61.09;99026.75;4317269;33;33075;-87
2024/04/04 07:11:18;;;;;;;3.95;1.40;;;;;;;13.52;61.26;99036.28;4317382;33;34686;-91
2024/04/04 07:13:44;;;;;;;3.17;1.35;;;;;;;13.85;60.96;99045.81;4313217;33;34091;-90
2024/04/04 07:16:12;;;;;;;3.47;1.30;;;;;;;14.00;59.84;99030.12;4303300;33;33923;-88
2024/04/04 07:18:39;;;;;;;2.67;1.17;;;;;;;13.51;61.11;99043.25;4302851;33;34196;-90
2024/04/04 07:21:06;;;;;;;4.22;1.15;;;;;;;13.77;60.92;99048.44;4302791;33;34065;-88
2024/04/04 07:23:33;;;;;;;3.20;0.95;;;;;;;14.16;59.65;99045.72;4302727;33;34384;-87
2024/04/04 07:26:00;;;;;;;1.92;1.00;;;;;;;14.68;58.44;99040.28;4303108;33;33788;-87
2024/04/04 07:28:27;;;;;;;2.05;1.00;;;;;;;14.91;58.44;99020.13;4302905;33;33075;-87
2024/04/04 07:30:54;;;;;;;4.05;1.23;;;;;;;14.78;57.73;99013.25;4309223;33;33988;-87
2024/04/04 07:33:22;;;;;;;2.15;0.80;;;;;;;15.24;55.93;99015.53;4291798;33;32700;-91
2024/04/04 07:35:50;;;;;;;2.12;0.80;;;;;;;15.60;54.29;99023.88;4317372;33;35018;-88
2024/04/04 07:38:16;;;;;;;2.30;0.98;;;;;;;16.05;53.62;99031.28;4317420;33;33716;-91
2024/04/04 07:40:43;;;;;;;3.45;1.10;;;;;;;15.75;53.74;99034.22;4317668;33;33391;-89
2024/04/04 07:43:11;;;;;;;2.37;0.80;;;;;;;15.66;53.68;99042.16;4317617;33;34126;-89
2024/04/04 07:45:39;;;;;;;3.78;0.90;;;;;;;15.65;53.94;99037.81;4317388;33;33429;-89
2024/04/04 07:48:08;;;;;;;1.67;0.82;;;;;;;15.43;55.08;99040.59;4294687;33;33061;-89
2024/04/04 07:50:36;;;;;;;4.03;0.80;;;;;;;15.64;54.70;99043.88;4289806;33;35106;-88
2024/04/04 07:53:03;;;;;;;1.30;0.70;;;;;;;15.65;53.65;99043.03;4302548;33;35064;-88
2024/04/04 07:55:30;;;;;;;1.77;0.52;;;;;;;15.93;52.67;99047.09;4302655;33;34304;-86
2024/04/04 07:57:56;;;;;;;2.17;0.75;;;;;;;16.40;51.25;99050.94;4289561;33;34415;-89
2024/04/04 08:00:24;;;;;;;2.67;0.70;;;;;;;16.29;51.78;99048.44;4302319;33;34425;-89
2024/04/04 08:02:51;;;;;;;1.08;0.40;;;;;;;16.91;50.36;99051.13;4291709;33;34569;-88
2024/04/04 08:05:18;;;;;;;1.00;0.35;;;;;;;16.41;51.25;99057.03;4316889;33;33220;-88
2024/04/04 08:07:44;;;;;;;1.85;0.73;;;;;;;16.48;50.17;99045.59;4316871;33;33431;-89
2024/04/04 08:10:19;;;;;;;2.20;0.60;;;;;;;16.61;49.85;99047.16;4312211;33;33487;-87
2024/04/04 08:12:46;;;;;;;2.17;0.70;;;;;;;16.70;50.99;99057.47;4289542;33;34929;-86
2024/04/04 08:15:13;;;;;;;1.40;0.62;;;;;;;16.45;51.22;99054.34;4302208;33;33970;-86
2024/04/04 08:17:42;;;;;;;1.02;0.50;;;;;;;17.15;49.60;99051.62;4312966;33;34157;-90
2024/04/04 08:20:14;;;;;;;2.30;0.70;;;;;;;17.11;50.25;99053.44;4302779;33;33551;-89
2024/04/04 08:22:42;;;;;;;2.30;0.77;;;;;;;17.33;50.68;99048.72;4313886;33;34187;-89
2024/04/04 08:25:10;;;;;;;2.55;0.80;;;;;;;17.61;48.39;99053.50;4307743;33;33591;-87
2024/04/04 08:27:36;;;;;;;2.15;0.85;;;;;;;17.29;48.72;99062.78;4317635;33;33348;-87
2024/04/04 08:30:03;;;;;;;2.55;0.70;;;;;;;17.35;48.93;99053.94;4316709;33;33627;-88
2024/04/04 08:32:31;;;;;;;2.58;1.00;;;;;;;17.33;49.86;99061.81;4316718;33;33603;-86
2024/04/04 08:35:00;;;;;;;2.47;0.73;;;;;;;17.51;49.94;99061.53;4315719;33;34838;-87
2024/04/04 08:37:27;;;;;;;2.17;0.73;;;;;;;17.83;48.46;99065.34;4303529;33;33219;-86
2024/04/04 08:39:55;;;;;;;3.00;0.73;;;;;;;17.55;49.33;99064.97;4316140;33;33528;-87
2024/04/04 08:42:26;;;;;;;1.62;0.82;;;;;;;17.03;49.16;99064.03;4316680;33;34845;-89
2024/04/04 08:44:53;;;;;;;1.62;0.70;;;;;;;17.45;49.25;99066.84;4315369;33;33726;-87
2024/04/04 08:47:20;;;;;;;1.80;0.80;;;;;;;17.79;47.65;99071.56;4316741;33;33982;-86
2024/04/04 08:49:48;;;;;;;2.83;0.70;;;;;;;17.75;48.04;99070.75;4303628;33;33513;-88
2024/04/04 08:52:14;;;;;;;0.85;0.40;;;;;;;17.17;49.03;99076.06;4303246;33;34019;-87
2024/04/04 08:54:44;;;;;;;2.00;0.52;;;;;;;17.48;47.81;99077.28;4303329;33;33406;-87
2024/04/04 08:57:10;;;;;;;1.58;0.60;;;;;;;17.55;47.89;99071.97;4316641;33;33016;-88
2024/04/04 08:59:37;;;;;;;3.08;0.68;;;;;;;17.03;49.38;99081.50;4311344;33;32533;-86
2024/04/04 09:02:07;;;;;;;3.78;0.70;;;;;;;16.96;49.71;99088.56;4316470;33;33970;-90
2024/04/04 09:04:33;;;;;;;1.10;0.50;;;;;;;16.94;49.66;99089.50;4316584;33;34655;-92
2024/04/04 09:07:00;;;;;;;1.87;0.50;;;;;;;16.44;50.23;99086.63;4316846;33;33383;-88
2024/04/04 09:09:27;;;;;;;1.87;0.70;;;;;;;16.72;49.85;99070.56;4316571;33;33942;-88
2024/04/04 09:11:54;;;;;;;3.15;0.50;;;;;;;16.88;49.17;99079.97;4302409;33;33835;-88
2024/04/04 09:14:21;;;;;;;3.08;0.50;;;;;;;17.10;49.09;99082.28;4295283;33;34674;-88
2024/04/04 09:16:48;;;;;;;1.67;0.60;;;;;;;17.12;49.02;99075.25;4315388;33;33424;-89
2024/04/04 09:19:19;;;;;;;2.60;0.70;;;;;;;17.14;48.20;99076.09;4303191;33;33866;-90
2024/04/04 09:21:46;;;;;;;1.52;0.50;;;;;;;16.88;49.09;99079.97;4303194;33;34988;-90
2024/04/04 09:24:14;;;;;;;1.83;0.50;;;;;;;16.86;49.77;99080.88;4316336;33;34608;-89
2024/04/04 09:26:46;;;;;;;2.28;0.70;;;;;;;17.26;48.79;99075.91;4290688;33;34187;-88
2024/04/04 09:29:14;;;;;;;1.15;0.45;;;;;;;17.24;49.62;99072.47;4303319;33;34427;-90
2024/04/04 09:31:41;;;;;;;2.45;0.60;;;;;;;17.45;49.47;99064.25;4281409;33;32837;-88
2024/04/04 09:34:10;;;;;;;3.10;0.80;;;;;;;17.97;49.20;99062.50;4309778;33;33744;-86
2024/04/04 09:36:39;;;;;;;5.47;0.80;;;;;;;17.74;47.88;99060.25;4305259;33;33358;-89
2024/04/04 09:39:12;;;;;;;3.12;0.77;;;;;;;17.57;48.08;99059.69;4309471;33;32849;-89
2024/04/04 09:41:39;;;;;;;5.12;0.93;;;;;;;17.03;49.30;99058.78;4289037;33;34984;-90
2024/04/04 09:44:06;;;;;;;5.03;0.80;;;;;;;17.23;49.09;99063.72;4288353;33;33918;-88
2024/04/04 09:46:40;;;;;;;2.60;0.60;;;;;;;17.11;49.25;99065.66;4306304;33;33938;-89
2024/04/04 09:49:08;;;;;;;2.50;0.80;;;;;;;17.56;48.20;99053.56;4288663;33;35386;-87
2024/04/04 09:51:35;;;;;;;4.45;0.70;;;;;;;17.12;49.14;99065.66;4288555;33;33800;-90
2024/04/04 09:54:03;;;;;;;1.98;0.70;;;;;;;17.28;48.80;99071.53;4288509;33;34818;-86
2024/04/04 09:56:30;;;;;;;1.90;0.60;;;;;;;16.77;50.79;99074.00;4301882;33;33113;-88
2024/04/04 09:58:57;;;;;;;3.08;0.50;;;;;;;17.08;49.55;99073.56;4288462;33;33649;-88
2024/04/04 10:01:25;;;;;;;3.33;0.73;;;;;;;17.22;49.73;99061.13;4301763;33;35092;-88
2024/04/04 10:03:55;;;;;;;3.30;0.77;;;;;;;17.86;48.11;99062.69;4299818;33;34846;-90
2024/04/04 10:06:36;;;;;;;4.28;0.70;;;;;;;18.10;48.26;99068.34;4316312;33;33401;-88
2024/04/04 10:09:16;;;;;;;1.62;0.60;;;;;;;18.13;48.42;99063.06;4316153;33;34907;-86
2024/04/04 10:11:42;;;;;;;2.97;0.60;;;;;;;18.27;48.43;99058.41;4316339;33;34192;-86
2024/04/04 10:14:16;;;;;;;2.15;0.70;;;;;;;18.46;46.85;99059.75;4314110;33;33963;-88
2024/04/04 10:16:45;;;;;;;1.58;0.60;;;;;;;18.29;47.51;99067.09;4315000;33;33491;-86
2024/04/04 10:19:13;;;;;;;1.25;0.47;;;;;;;18.53;47.45;99071.00;4314512;33;34278;-87
2024/04/04 10:21:40;;;;;;;2.92;0.50;;;;;;;18.99;46.22;99064.78;4309683;33;34225;-87
2024/04/04 10:24:07;;;;;;;2.87;0.70;;;;;;;18.36;47.54;99073.09;4312371;33;33799;-87
2024/04/04 10:26:34;;;;;;;1.73;0.60;;;;;;;18.70;46.72;99063.66;4315204;33;34992;-87
2024/04/04 10:29:02;;;;;;;1.73;0.77;;;;;;;18.27;47.25;99070.66;4327876;33;34072;-87
2024/04/04 10:31:29;;;;;;;1.02;0.40;;;;;;;18.42;46.94;99068.59;4330748;33;34994;-86
2024/04/04 10:34:03;;;;;;;3.15;0.50;;;;;;;18.20;47.56;99073.41;4330838;33;33609;-87
2024/04/04 10:36:41;;;;;;;2.28;0.55;;;;;;;17.80;47.93;99081.13;4314941;33;34106;-87
2024/04/04 10:39:12;;;;;;;1.85;0.37;;;;;;;18.44;47.15;99081.66;4330156;33;34028;-82
2024/04/04 10:41:40;;;;;;;1.65;0.30;;;;;;;18.32;45.97;99085.41;4299745;33;35171;-86
2024/04/04 10:44:13;;;;;;;1.80;0.40;;;;;;;18.33;46.16;99074.00;4316635;33;34040;-88
2024/04/04 10:46:45;;;;;;;1.17;0.30;;;;;;;18.33;46.92;99070.53;4315761;33;33616;-87
2024/04/04 10:49:13;;;;;;;2.08;0.45;;;;;;;18.68;43.72;99081.19;4316018;33;33694;-88
2024/04/04 10:51:43;;;;;;;6.28;0.52;;;;;;;18.56;44.35;99075.31;4315930;33;34092;-88
2024/04/04 10:54:10;;;;;;;1.23;0.30;;;;;;;18.14;45.43;99062.16;4302446;33;34896;-87
2024/04/04 10:56:37;;;;;;;1.10;0.30;;;;;;;18.05;45.67;99071.06;4290657;33;32438;-87
2024/04/04 10:59:04;;;;;;;1.27;0.32;;;;;;;18.79;44.11;99066.97;4315816;33;34795;-87
2024/04/04 11:01:32;;;;;;;1.27;0.30;;;;;;;18.44;46.09;99061.53;4315684;33;34877;-87
2024/04/04 11:03:59;;;;;;;2.53;0.43;;;;;;;18.66;44.83;99061.09;4302541;33;34839;-87
2024/04/04 11:06:27;;;;;;;1.05;0.40;;;;;;;18.78;43.81;99057.34;4315780;33;32994;-88
2024/04/04 11:09:00;;;;;;;2.25;0.40;;;;;;;18.57;44.24;99050.81;4302445;33;34694;-88
2024/04/04 11:11:27;;;;;;;2.53;0.65;;;;;;;18.55;43.80;99063.06;4302552;33;34958;-87
2024/04/04 11:13:54;;;;;;;1.92;0.35;;;;;;;18.39;44.04;99060.78;4302634;33;32758;-88
2024/04/04 11:16:21;;;;;;;1.62;0.40;;;;;;;18.43;44.66;99061.56;4302424;33;32744;-88
2024/04/04 11:18:48;;;;;;;1.00;0.30;;;;;;;18.65;43.87;99054.13;4302285;33;33259;-88
2024/04/04 11:21:14;;;;;;;1.45;0.35;;;;;;;19.09;44.45;99049.63;4315915;33;34861;-89
2024/04/04 11:23:42;;;;;;;1.00;0.30;;;;;;;18.93;43.36;99046.50;4315424;33;33605;-87
2024/04/04 11:26:09;;;;;;;1.40;0.50;;;;;;;18.94;44.11;99056.09;4302247;33;34204;-88
2024/04/04 11:28:35;;;;;;;1.37;0.35;;;;;;;19.33;42.46;99054.31;4302397;33;33805;-88
2024/04/04 11:31:02;;;;;;;1.25;0.30;;;;;;;19.45;41.91;99046.13;4302107;33;34086;-88
2024/04/04 11:33:30;;;;;;;2.15;0.50;;;;;;;19.60;43.94;99049.25;4302540;33;33807;-88
2024/04/04 11:35:57;;;;;;;1.20;0.40;;;;;;;19.45;42.91;99048.75;4302503;33;33134;-88